sensor_id;sensor_type;location;lat;lon;timestamp;P1;durP1;ratioP1;P2;durP2;ratioP2
31450;SDS011;18070;52.474;13.304;2023-08-24T00:00:34;7.88;;;3.75;;
31450;SDS011;18070;52.474;13.304;2023-08-24T00:03:00;7.35;;;3.97;;
31450;SDS011;18070;52.474;13.304;2023-08-24T00:05:27;8.77;;;3.58;;
31450;SDS011;18070;52.474;13.304;2023-08-24T00:07:53;6.13;;;3.75;;
31450;SDS011;18070;52.474;13.304;2023-08-24T00:10:19;6.60;;;3.78;;
31450;SDS011;18070;52.474;13.304;2023-08-24T00:12:44;4.93;;;3.55;;
31450;SDS011;18070;52.474;13.304;2023-08-24T00:15:10;9.15;;;4.22;;
31450;SDS011;18070;52.474;13.304;2023-08-24T00:17:36;5.90;;;3.55;;
31450;SDS011;18070;52.474;13.304;2023-08-24T00:20:03;8.13;;;3.90;;
31450;SDS011;18070;52.474;13.304;2023-08-24T00:22:32;8.43;;;3.40;;
31450;SDS011;18070;52.474;13.304;2023-08-24T00:24:58;6.68;;;3.67;;
31450;SDS011;18070;52.474;13.304;2023-08-24T00:27:23;8.30;;;3.78;;
31450;SDS011;18070;52.474;13.304;2023-08-24T00:29:49;8.43;;;3.92;;
31450;SDS011;18070;52.474;13.304;2023-08-24T00:32:15;6.20;;;3.88;;
31450;SDS011;18070;52.474;13.304;2023-08-24T00:34:41;5.85;;;3.40;;
31450;SDS011;18070;52.474;13.304;2023-08-24T00:37:06;4.80;;;3.95;;
31450;SDS011;18070;52.474;13.304;2023-08-24T00:39:32;5.85;;;3.88;;
31450;SDS011;18070;52.474;13.304;2023-08-24T00:41:57;7.38;;;4.00;;
31450;SDS011;18070;52.474;13.304;2023-08-24T00:44:23;5.82;;;3.80;;
31450;SDS011;18070;52.474;13.304;2023-08-24T00:46:49;5.80;;;3.55;;
31450;SDS011;18070;52.474;13.304;2023-08-24T00:49:14;7.88;;;4.15;;
31450;SDS011;18070;52.474;13.304;2023-08-24T00:51:40;7.22;;;4.00;;
31450;SDS011;18070;52.474;13.304;2023-08-24T00:54:06;6.97;;;3.67;;
31450;SDS011;18070;52.474;13.304;2023-08-24T00:56:32;4.85;;;3.55;;
31450;SDS011;18070;52.474;13.304;2023-08-24T00:58:58;6.00;;;3.65;;
31450;SDS011;18070;52.474;13.304;2023-08-24T01:01:24;5.68;;;3.83;;
31450;SDS011;18070;52.474;13.304;2023-08-24T01:03:49;5.45;;;4.10;;
31450;SDS011;18070;52.474;13.304;2023-08-24T01:06:15;8.70;;;3.95;;
31450;SDS011;18070;52.474;13.304;2023-08-24T01:08:41;5.22;;;3.25;;
31450;SDS011;18070;52.474;13.304;2023-08-24T01:11:09;7.90;;;4.13;;
31450;SDS011;18070;52.474;13.304;2023-08-24T01:14:02;9.13;;;4.32;;
31450;SDS011;18070;52.474;13.304;2023-08-24T01:16:33;6.25;;;4.10;;
31450;SDS011;18070;52.474;13.304;2023-08-24T01:19:05;6.88;;;3.70;;
31450;SDS011;18070;52.474;13.304;2023-08-24T01:21:37;6.70;;;4.20;;
31450;SDS011;18070;52.474;13.304;2023-08-24T01:24:04;5.55;;;3.63;;
31450;SDS011;18070;52.474;13.304;2023-08-24T01:26:34;12.52;;;3.78;;
31450;SDS011;18070;52.474;13.304;2023-08-24T01:29:00;10.20;;;4.15;;
31450;SDS011;18070;52.474;13.304;2023-08-24T01:31:29;4.93;;;4.18;;
31450;SDS011;18070;52.474;13.304;2023-08-24T01:33:55;7.22;;;4.20;;
31450;SDS011;18070;52.474;13.304;2023-08-24T01:36:20;7.70;;;4.63;;
31450;SDS011;18070;52.474;13.304;2023-08-24T01:38:53;7.22;;;4.53;;
31450;SDS011;18070;52.474;13.304;2023-08-24T01:41:26;7.93;;;4.40;;
31450;SDS011;18070;52.474;13.304;2023-08-24T01:43:55;6.70;;;4.13;;
31450;SDS011;18070;52.474;13.304;2023-08-24T01:46:24;6.45;;;4.85;;
31450;SDS011;18070;52.474;13.304;2023-08-24T01:48:50;8.57;;;5.90;;
31450;SDS011;18070;52.474;13.304;2023-08-24T01:51:17;8.95;;;5.60;;
31450;SDS011;18070;52.474;13.304;2023-08-24T01:53:44;7.90;;;5.20;;
31450;SDS011;18070;52.474;13.304;2023-08-24T01:56:15;7.50;;;5.93;;
31450;SDS011;18070;52.474;13.304;2023-08-24T01:58:41;8.18;;;5.45;;
31450;SDS011;18070;52.474;13.304;2023-08-24T02:01:09;7.55;;;5.28;;
31450;SDS011;18070;52.474;13.304;2023-08-24T02:03:35;9.50;;;5.63;;
31450;SDS011;18070;52.474;13.304;2023-08-24T02:06:01;12.38;;;6.35;;
31450;SDS011;18070;52.474;13.304;2023-08-24T02:08:27;10.50;;;5.88;;
31450;SDS011;18070;52.474;13.304;2023-08-24T02:10:52;8.30;;;5.35;;
31450;SDS011;18070;52.474;13.304;2023-08-24T02:13:18;9.95;;;5.55;;
31450;SDS011;18070;52.474;13.304;2023-08-24T02:15:44;9.63;;;5.82;;
31450;SDS011;18070;52.474;13.304;2023-08-24T02:18:09;9.20;;;5.47;;
31450;SDS011;18070;52.474;13.304;2023-08-24T02:20:38;11.50;;;5.60;;
31450;SDS011;18070;52.474;13.304;2023-08-24T02:23:04;6.95;;;4.97;;
31450;SDS011;18070;52.474;13.304;2023-08-24T02:25:30;9.43;;;5.43;;
31450;SDS011;18070;52.474;13.304;2023-08-24T02:27:56;8.88;;;5.55;;
31450;SDS011;18070;52.474;13.304;2023-08-24T02:30:22;8.85;;;5.22;;
31450;SDS011;18070;52.474;13.304;2023-08-24T02:32:47;6.88;;;5.40;;
31450;SDS011;18070;52.474;13.304;2023-08-24T02:35:13;13.65;;;5.05;;
31450;SDS011;18070;52.474;13.304;2023-08-24T02:37:39;9.00;;;4.90;;
31450;SDS011;18070;52.474;13.304;2023-08-24T02:40:04;6.38;;;4.82;;
31450;SDS011;18070;52.474;13.304;2023-08-24T02:42:31;8.13;;;5.43;;
31450;SDS011;18070;52.474;13.304;2023-08-24T02:44:57;6.10;;;4.82;;
31450;SDS011;18070;52.474;13.304;2023-08-24T02:47:23;8.60;;;4.93;;
31450;SDS011;18070;52.474;13.304;2023-08-24T02:49:49;8.30;;;4.93;;
31450;SDS011;18070;52.474;13.304;2023-08-24T02:52:14;11.93;;;4.78;;
31450;SDS011;18070;52.474;13.304;2023-08-24T02:54:40;8.82;;;4.57;;
31450;SDS011;18070;52.474;13.304;2023-08-24T02:57:06;7.43;;;4.72;;
31450;SDS011;18070;52.474;13.304;2023-08-24T02:59:31;8.60;;;4.60;;
31450;SDS011;18070;52.474;13.304;2023-08-24T03:01:57;7.40;;;4.65;;
31450;SDS011;18070;52.474;13.304;2023-08-24T03:04:23;7.65;;;4.85;;
31450;SDS011;18070;52.474;13.304;2023-08-24T03:06:48;8.95;;;4.72;;
31450;SDS011;18070;52.474;13.304;2023-08-24T03:09:14;16.30;;;4.47;;
31450;SDS011;18070;52.474;13.304;2023-08-24T03:11:40;8.00;;;4.85;;
31450;SDS011;18070;52.474;13.304;2023-08-24T03:14:06;9.15;;;4.57;;
31450;SDS011;18070;52.474;13.304;2023-08-24T03:16:31;5.93;;;4.43;;
31450;SDS011;18070;52.474;13.304;2023-08-24T03:18:57;7.90;;;4.88;;
31450;SDS011;18070;52.474;13.304;2023-08-24T03:21:23;7.97;;;4.72;;
31450;SDS011;18070;52.474;13.304;2023-08-24T03:23:49;5.13;;;3.92;;
31450;SDS011;18070;52.474;13.304;2023-08-24T03:26:14;9.77;;;4.60;;
31450;SDS011;18070;52.474;13.304;2023-08-24T03:28:41;5.55;;;3.85;;
31450;SDS011;18070;52.474;13.304;2023-08-24T03:31:07;5.38;;;4.22;;
31450;SDS011;18070;52.474;13.304;2023-08-24T03:33:33;5.53;;;4.05;;
31450;SDS011;18070;52.474;13.304;2023-08-24T03:35:59;7.82;;;4.50;;
31450;SDS011;18070;52.474;13.304;2023-08-24T03:38:26;8.23;;;4.47;;
31450;SDS011;18070;52.474;13.304;2023-08-24T03:40:59;6.03;;;4.40;;
31450;SDS011;18070;52.474;13.304;2023-08-24T03:43:30;10.30;;;3.78;;
31450;SDS011;18070;52.474;13.304;2023-08-24T03:45:57;7.88;;;3.97;;
31450;SDS011;18070;52.474;13.304;2023-08-24T03:48:23;6.00;;;3.50;;
31450;SDS011;18070;52.474;13.304;2023-08-24T03:50:48;5.05;;;3.85;;
31450;SDS011;18070;52.474;13.304;2023-08-24T03:53:14;5.93;;;3.80;;
31450;SDS011;18070;52.474;13.304;2023-08-24T03:55:40;8.73;;;4.20;;
31450;SDS011;18070;52.474;13.304;2023-08-24T03:58:05;6.97;;;3.78;;
31450;SDS011;18070;52.474;13.304;2023-08-24T04:00:31;5.38;;;3.88;;
31450;SDS011;18070;52.474;13.304;2023-08-24T04:02:56;7.07;;;4.20;;
31450;SDS011;18070;52.474;13.304;2023-08-24T04:05:22;5.78;;;4.25;;
31450;SDS011;18070;52.474;13.304;2023-08-24T04:07:48;6.80;;;3.78;;
31450;SDS011;18070;52.474;13.304;2023-08-24T04:10:13;6.18;;;3.60;;
31450;SDS011;18070;52.474;13.304;2023-08-24T04:12:39;6.32;;;3.70;;
31450;SDS011;18070;52.474;13.304;2023-08-24T04:15:05;5.63;;;4.00;;
31450;SDS011;18070;52.474;13.304;2023-08-24T04:17:31;7.13;;;3.75;;
31450;SDS011;18070;52.474;13.304;2023-08-24T04:19:56;7.10;;;4.35;;
31450;SDS011;18070;52.474;13.304;2023-08-24T04:22:22;9.20;;;4.30;;
31450;SDS011;18070;52.474;13.304;2023-08-24T04:24:48;10.75;;;3.90;;
31450;SDS011;18070;52.474;13.304;2023-08-24T04:27:14;8.70;;;4.20;;
31450;SDS011;18070;52.474;13.304;2023-08-24T04:29:39;5.05;;;3.67;;
31450;SDS011;18070;52.474;13.304;2023-08-24T04:32:05;8.13;;;3.80;;
31450;SDS011;18070;52.474;13.304;2023-08-24T04:34:31;5.95;;;3.60;;
31450;SDS011;18070;52.474;13.304;2023-08-24T04:36:57;7.05;;;3.58;;
31450;SDS011;18070;52.474;13.304;2023-08-24T04:39:22;9.60;;;3.60;;
31450;SDS011;18070;52.474;13.304;2023-08-24T04:41:49;4.97;;;3.67;;
31450;SDS011;18070;52.474;13.304;2023-08-24T04:44:15;7.25;;;3.25;;
31450;SDS011;18070;52.474;13.304;2023-08-24T04:46:41;7.28;;;3.90;;
31450;SDS011;18070;52.474;13.304;2023-08-24T04:49:06;6.43;;;3.50;;
31450;SDS011;18070;52.474;13.304;2023-08-24T04:51:32;6.13;;;4.20;;
31450;SDS011;18070;52.474;13.304;2023-08-24T04:53:57;7.47;;;4.20;;
31450;SDS011;18070;52.474;13.304;2023-08-24T04:56:23;7.93;;;3.67;;
31450;SDS011;18070;52.474;13.304;2023-08-24T04:58:52;13.15;;;3.63;;
31450;SDS011;18070;52.474;13.304;2023-08-24T05:03:48;10.25;;;3.40;;
31450;SDS011;18070;52.474;13.304;2023-08-24T05:06:13;8.63;;;4.50;;
31450;SDS011;18070;52.474;13.304;2023-08-24T05:08:39;5.85;;;3.83;;
31450;SDS011;18070;52.474;13.304;2023-08-24T05:11:14;8.10;;;3.47;;
31450;SDS011;18070;52.474;13.304;2023-08-24T05:13:42;9.10;;;3.85;;
31450;SDS011;18070;52.474;13.304;2023-08-24T05:16:09;5.97;;;3.47;;
31450;SDS011;18070;52.474;13.304;2023-08-24T05:18:35;7.13;;;3.33;;
31450;SDS011;18070;52.474;13.304;2023-08-24T05:21:04;5.22;;;3.58;;
31450;SDS011;18070;52.474;13.304;2023-08-24T05:23:30;6.70;;;3.58;;
31450;SDS011;18070;52.474;13.304;2023-08-24T05:25:57;5.82;;;3.70;;
31450;SDS011;18070;52.474;13.304;2023-08-24T05:28:27;10.85;;;4.25;;
31450;SDS011;18070;52.474;13.304;2023-08-24T05:30:53;10.73;;;3.55;;
31450;SDS011;18070;52.474;13.304;2023-08-24T05:33:20;6.47;;;3.33;;
31450;SDS011;18070;52.474;13.304;2023-08-24T05:35:46;9.90;;;3.72;;
31450;SDS011;18070;52.474;13.304;2023-08-24T05:38:12;8.27;;;3.20;;
31450;SDS011;18070;52.474;13.304;2023-08-24T05:40:42;7.97;;;3.45;;
31450;SDS011;18070;52.474;13.304;2023-08-24T05:43:08;4.50;;;3.17;;
31450;SDS011;18070;52.474;13.304;2023-08-24T05:45:37;7.22;;;3.20;;
31450;SDS011;18070;52.474;13.304;2023-08-24T05:48:04;6.07;;;3.60;;
31450;SDS011;18070;52.474;13.304;2023-08-24T05:50:30;4.72;;;3.10;;
31450;SDS011;18070;52.474;13.304;2023-08-24T05:52:56;5.82;;;3.42;;
31450;SDS011;18070;52.474;13.304;2023-08-24T05:55:21;7.95;;;3.65;;
31450;SDS011;18070;52.474;13.304;2023-08-24T05:57:47;9.65;;;3.80;;
31450;SDS011;18070;52.474;13.304;2023-08-24T06:00:13;4.57;;;2.55;;
31450;SDS011;18070;52.474;13.304;2023-08-24T06:02:39;6.07;;;2.97;;
31450;SDS011;18070;52.474;13.304;2023-08-24T06:05:05;5.22;;;2.97;;
31450;SDS011;18070;52.474;13.304;2023-08-24T06:07:32;8.98;;;2.97;;
31450;SDS011;18070;52.474;13.304;2023-08-24T06:09:58;7.00;;;2.75;;
31450;SDS011;18070;52.474;13.304;2023-08-24T06:12:24;6.65;;;2.80;;
31450;SDS011;18070;52.474;13.304;2023-08-24T06:14:50;8.68;;;2.85;;
31450;SDS011;18070;52.474;13.304;2023-08-24T06:17:15;7.25;;;3.00;;
31450;SDS011;18070;52.474;13.304;2023-08-24T06:19:41;6.28;;;3.22;;
31450;SDS011;18070;52.474;13.304;2023-08-24T06:22:07;6.50;;;2.90;;
31450;SDS011;18070;52.474;13.304;2023-08-24T06:24:32;6.97;;;3.20;;
31450;SDS011;18070;52.474;13.304;2023-08-24T06:26:58;7.95;;;3.50;;
31450;SDS011;18070;52.474;13.304;2023-08-24T06:29:24;9.02;;;4.03;;
31450;SDS011;18070;52.474;13.304;2023-08-24T06:31:49;13.13;;;3.63;;
31450;SDS011;18070;52.474;13.304;2023-08-24T06:34:15;7.85;;;3.88;;
31450;SDS011;18070;52.474;13.304;2023-08-24T06:36:41;5.07;;;3.20;;
31450;SDS011;18070;52.474;13.304;2023-08-24T06:39:06;6.07;;;3.13;;
31450;SDS011;18070;52.474;13.304;2023-08-24T06:41:33;10.27;;;3.88;;
31450;SDS011;18070;52.474;13.304;2023-08-24T06:44:00;12.88;;;3.40;;
31450;SDS011;18070;52.474;13.304;2023-08-24T06:46:26;14.82;;;6.20;;
31450;SDS011;18070;52.474;13.304;2023-08-24T06:48:52;14.38;;;6.47;;
31450;SDS011;18070;52.474;13.304;2023-08-24T06:51:18;15.82;;;5.30;;
31450;SDS011;18070;52.474;13.304;2023-08-24T06:53:43;13.85;;;4.55;;
31450;SDS011;18070;52.474;13.304;2023-08-24T06:56:11;6.32;;;3.63;;
31450;SDS011;18070;52.474;13.304;2023-08-24T06:58:39;7.93;;;3.60;;
31450;SDS011;18070;52.474;13.304;2023-08-24T07:01:04;11.50;;;4.00;;
31450;SDS011;18070;52.474;13.304;2023-08-24T07:03:31;8.82;;;4.25;;
31450;SDS011;18070;52.474;13.304;2023-08-24T07:05:58;16.45;;;4.32;;
31450;SDS011;18070;52.474;13.304;2023-08-24T07:08:24;6.95;;;2.70;;
31450;SDS011;18070;52.474;13.304;2023-08-24T07:10:50;11.35;;;3.75;;
31450;SDS011;18070;52.474;13.304;2023-08-24T07:13:15;7.45;;;3.45;;
31450;SDS011;18070;52.474;13.304;2023-08-24T07:15:41;11.85;;;3.30;;
31450;SDS011;18070;52.474;13.304;2023-08-24T07:18:07;7.13;;;2.83;;
31450;SDS011;18070;52.474;13.304;2023-08-24T07:20:34;9.18;;;2.40;;
31450;SDS011;18070;52.474;13.304;2023-08-24T07:23:00;9.55;;;3.67;;
31450;SDS011;18070;52.474;13.304;2023-08-24T07:25:26;9.57;;;3.78;;
31450;SDS011;18070;52.474;13.304;2023-08-24T07:27:53;6.47;;;3.30;;
31450;SDS011;18070;52.474;13.304;2023-08-24T07:30:23;5.97;;;3.35;;
31450;SDS011;18070;52.474;13.304;2023-08-24T07:32:54;7.13;;;3.30;;
31450;SDS011;18070;52.474;13.304;2023-08-24T07:35:20;9.25;;;3.97;;
31450;SDS011;18070;52.474;13.304;2023-08-24T07:37:47;8.52;;;3.25;;
31450;SDS011;18070;52.474;13.304;2023-08-24T07:40:13;7.50;;;3.30;;
31450;SDS011;18070;52.474;13.304;2023-08-24T07:45:11;10.57;;;4.90;;
31450;SDS011;18070;52.474;13.304;2023-08-24T07:47:37;17.40;;;5.75;;
31450;SDS011;18070;52.474;13.304;2023-08-24T07:50:03;12.68;;;3.60;;
31450;SDS011;18070;52.474;13.304;2023-08-24T07:52:29;25.25;;;7.13;;
31450;SDS011;18070;52.474;13.304;2023-08-24T07:54:54;7.88;;;3.47;;
31450;SDS011;18070;52.474;13.304;2023-08-24T07:57:24;8.95;;;2.95;;
31450;SDS011;18070;52.474;13.304;2023-08-24T07:59:51;6.03;;;2.85;;
31450;SDS011;18070;52.474;13.304;2023-08-24T08:02:17;9.57;;;3.20;;
31450;SDS011;18070;52.474;13.304;2023-08-24T08:04:43;8.95;;;3.17;;
31450;SDS011;18070;52.474;13.304;2023-08-24T08:07:08;8.70;;;3.65;;
31450;SDS011;18070;52.474;13.304;2023-08-24T08:09:35;9.88;;;3.25;;
31450;SDS011;18070;52.474;13.304;2023-08-24T08:12:01;5.20;;;2.78;;
31450;SDS011;18070;52.474;13.304;2023-08-24T08:14:28;5.68;;;2.60;;
31450;SDS011;18070;52.474;13.304;2023-08-24T08:16:54;5.18;;;2.60;;
31450;SDS011;18070;52.474;13.304;2023-08-24T08:19:20;3.60;;;2.55;;
31450;SDS011;18070;52.474;13.304;2023-08-24T08:22:03;3.47;;;2.30;;
31450;SDS011;18070;52.474;13.304;2023-08-24T08:24:39;6.90;;;2.50;;
31450;SDS011;18070;52.474;13.304;2023-08-24T08:27:05;3.70;;;2.45;;
31450;SDS011;18070;52.474;13.304;2023-08-24T08:29:31;7.32;;;2.42;;
31450;SDS011;18070;52.474;13.304;2023-08-24T08:31:57;10.45;;;2.75;;
31450;SDS011;18070;52.474;13.304;2023-08-24T08:34:23;13.68;;;3.05;;
31450;SDS011;18070;52.474;13.304;2023-08-24T08:36:48;5.53;;;2.40;;
31450;SDS011;18070;52.474;13.304;2023-08-24T08:39:14;7.28;;;2.72;;
31450;SDS011;18070;52.474;13.304;2023-08-24T08:41:43;5.40;;;2.33;;
31450;SDS011;18070;52.474;13.304;2023-08-24T08:44:11;9.68;;;2.78;;
31450;SDS011;18070;52.474;13.304;2023-08-24T08:46:42;8.95;;;3.13;;
31450;SDS011;18070;52.474;13.304;2023-08-24T08:49:08;7.30;;;2.25;;
31450;SDS011;18070;52.474;13.304;2023-08-24T08:51:37;7.00;;;2.35;;
31450;SDS011;18070;52.474;13.304;2023-08-24T08:54:03;8.02;;;2.80;;
31450;SDS011;18070;52.474;13.304;2023-08-24T08:56:30;12.10;;;2.70;;
31450;SDS011;18070;52.474;13.304;2023-08-24T08:58:57;24.38;;;4.30;;
31450;SDS011;18070;52.474;13.304;2023-08-24T09:01:25;21.23;;;3.55;;
31450;SDS011;18070;52.474;13.304;2023-08-24T09:03:52;5.80;;;2.70;;
31450;SDS011;18070;52.474;13.304;2023-08-24T09:06:19;9.57;;;2.85;;
31450;SDS011;18070;52.474;13.304;2023-08-24T09:08:45;6.13;;;3.22;;
31450;SDS011;18070;52.474;13.304;2023-08-24T09:11:12;10.40;;;3.17;;
31450;SDS011;18070;52.474;13.304;2023-08-24T09:13:39;16.10;;;3.17;;
31450;SDS011;18070;52.474;13.304;2023-08-24T09:16:05;16.85;;;3.47;;
31450;SDS011;18070;52.474;13.304;2023-08-24T09:18:38;8.63;;;2.53;;
31450;SDS011;18070;52.474;13.304;2023-08-24T09:21:08;9.40;;;2.42;;
31450;SDS011;18070;52.474;13.304;2023-08-24T09:23:35;5.63;;;2.63;;
31450;SDS011;18070;52.474;13.304;2023-08-24T09:26:00;7.38;;;2.15;;
31450;SDS011;18070;52.474;13.304;2023-08-24T09:28:26;11.02;;;2.50;;
31450;SDS011;18070;52.474;13.304;2023-08-24T09:30:52;9.00;;;2.20;;
31450;SDS011;18070;52.474;13.304;2023-08-24T09:33:21;9.05;;;2.75;;
31450;SDS011;18070;52.474;13.304;2023-08-24T09:35:53;9.77;;;2.70;;
31450;SDS011;18070;52.474;13.304;2023-08-24T09:38:23;13.85;;;2.58;;
31450;SDS011;18070;52.474;13.304;2023-08-24T09:40:53;11.38;;;2.45;;
31450;SDS011;18070;52.474;13.304;2023-08-24T09:43:19;6.93;;;2.03;;
31450;SDS011;18070;52.474;13.304;2023-08-24T09:45:55;7.25;;;2.00;;
31450;SDS011;18070;52.474;13.304;2023-08-24T09:48:21;3.70;;;1.80;;
31450;SDS011;18070;52.474;13.304;2023-08-24T09:50:51;5.40;;;1.90;;
31450;SDS011;18070;52.474;13.304;2023-08-24T09:53:21;5.88;;;1.92;;
31450;SDS011;18070;52.474;13.304;2023-08-24T09:55:55;4.68;;;1.80;;
31450;SDS011;18070;52.474;13.304;2023-08-24T09:58:24;8.10;;;2.00;;
31450;SDS011;18070;52.474;13.304;2023-08-24T10:00:50;5.65;;;2.10;;
31450;SDS011;18070;52.474;13.304;2023-08-24T10:03:21;5.60;;;2.15;;
31450;SDS011;18070;52.474;13.304;2023-08-24T10:05:52;16.08;;;2.42;;
31450;SDS011;18070;52.474;13.304;2023-08-24T10:08:21;2.65;;;1.77;;
31450;SDS011;18070;52.474;13.304;2023-08-24T10:10:50;3.10;;;1.75;;
31450;SDS011;18070;52.474;13.304;2023-08-24T10:13:21;4.57;;;2.00;;
31450;SDS011;18070;52.474;13.304;2023-08-24T10:15:53;5.68;;;1.70;;
31450;SDS011;18070;52.474;13.304;2023-08-24T10:18:21;3.85;;;1.27;;
31450;SDS011;18070;52.474;13.304;2023-08-24T10:20:49;11.27;;;1.75;;
31450;SDS011;18070;52.474;13.304;2023-08-24T10:23:15;2.20;;;1.58;;
31450;SDS011;18070;52.474;13.304;2023-08-24T10:25:41;3.65;;;1.67;;
31450;SDS011;18070;52.474;13.304;2023-08-24T10:28:09;5.05;;;1.65;;
31450;SDS011;18070;52.474;13.304;2023-08-24T10:30:36;4.65;;;1.70;;
31450;SDS011;18070;52.474;13.304;2023-08-24T10:33:04;3.47;;;1.60;;
31450;SDS011;18070;52.474;13.304;2023-08-24T10:35:31;7.07;;;1.65;;
31450;SDS011;18070;52.474;13.304;2023-08-24T10:38:00;6.18;;;1.83;;
31450;SDS011;18070;52.474;13.304;2023-08-24T10:40:33;7.70;;;1.60;;
31450;SDS011;18070;52.474;13.304;2023-08-24T10:43:03;4.95;;;1.55;;
31450;SDS011;18070;52.474;13.304;2023-08-24T10:48:29;6.15;;;1.65;;
31450;SDS011;18070;52.474;13.304;2023-08-24T10:51:15;7.95;;;2.17;;
31450;SDS011;18070;52.474;13.304;2023-08-24T10:53:44;7.50;;;1.88;;
31450;SDS011;18070;52.474;13.304;2023-08-24T10:56:16;3.60;;;1.67;;
31450;SDS011;18070;52.474;13.304;2023-08-24T10:58:43;6.95;;;1.55;;
31450;SDS011;18070;52.474;13.304;2023-08-24T11:01:16;4.13;;;1.80;;
31450;SDS011;18070;52.474;13.304;2023-08-24T11:03:45;8.73;;;2.17;;
31450;SDS011;18070;52.474;13.304;2023-08-24T11:06:22;4.20;;;1.85;;
31450;SDS011;18070;52.474;13.304;2023-08-24T11:08:57;5.78;;;1.80;;
31450;SDS011;18070;52.474;13.304;2023-08-24T11:11:40;8.13;;;2.13;;
31450;SDS011;18070;52.474;13.304;2023-08-24T11:14:16;4.78;;;1.85;;
31450;SDS011;18070;52.474;13.304;2023-08-24T11:16:48;5.07;;;2.10;;
31450;SDS011;18070;52.474;13.304;2023-08-24T11:19:14;7.55;;;2.05;;
31450;SDS011;18070;52.474;13.304;2023-08-24T11:21:44;8.15;;;1.95;;
31450;SDS011;18070;52.474;13.304;2023-08-24T11:24:14;2.90;;;1.70;;
31450;SDS011;18070;52.474;13.304;2023-08-24T11:26:44;3.47;;;1.90;;
31450;SDS011;18070;52.474;13.304;2023-08-24T11:29:11;8.73;;;2.33;;
31450;SDS011;18070;52.474;13.304;2023-08-24T11:31:37;8.05;;;1.77;;
31450;SDS011;18070;52.474;13.304;2023-08-24T11:34:03;3.67;;;2.03;;
31450;SDS011;18070;52.474;13.304;2023-08-24T11:36:43;3.30;;;1.98;;
31450;SDS011;18070;52.474;13.304;2023-08-24T11:39:16;7.03;;;1.60;;
31450;SDS011;18070;52.474;13.304;2023-08-24T11:41:44;4.18;;;1.80;;
31450;SDS011;18070;52.474;13.304;2023-08-24T11:44:45;7.80;;;1.95;;
31450;SDS011;18070;52.474;13.304;2023-08-24T11:47:14;4.07;;;1.80;;
31450;SDS011;18070;52.474;13.304;2023-08-24T11:49:41;6.70;;;1.92;;
31450;SDS011;18070;52.474;13.304;2023-08-24T11:52:07;7.93;;;2.17;;
31450;SDS011;18070;52.474;13.304;2023-08-24T11:54:33;6.80;;;1.77;;
31450;SDS011;18070;52.474;13.304;2023-08-24T11:57:05;6.22;;;2.10;;
31450;SDS011;18070;52.474;13.304;2023-08-24T11:59:31;4.43;;;1.90;;
31450;SDS011;18070;52.474;13.304;2023-08-24T12:01:57;8.68;;;1.88;;
31450;SDS011;18070;52.474;13.304;2023-08-24T12:04:24;6.60;;;2.08;;
31450;SDS011;18070;52.474;13.304;2023-08-24T12:06:49;4.35;;;2.08;;
31450;SDS011;18070;52.474;13.304;2023-08-24T12:09:15;5.60;;;2.45;;
31450;SDS011;18070;52.474;13.304;2023-08-24T12:11:41;3.92;;;1.95;;
31450;SDS011;18070;52.474;13.304;2023-08-24T12:14:07;6.57;;;1.75;;
31450;SDS011;18070;52.474;13.304;2023-08-24T12:16:35;3.25;;;2.00;;
31450;SDS011;18070;52.474;13.304;2023-08-24T12:19:00;4.78;;;2.38;;
31450;SDS011;18070;52.474;13.304;2023-08-24T12:21:30;5.75;;;2.13;;
31450;SDS011;18070;52.474;13.304;2023-08-24T12:26:34;4.78;;;2.10;;
31450;SDS011;18070;52.474;13.304;2023-08-24T12:29:04;5.50;;;2.20;;
31450;SDS011;18070;52.474;13.304;2023-08-24T12:31:31;6.32;;;1.98;;
31450;SDS011;18070;52.474;13.304;2023-08-24T12:34:02;10.30;;;2.20;;
31450;SDS011;18070;52.474;13.304;2023-08-24T12:36:32;4.13;;;2.08;;
31450;SDS011;18070;52.474;13.304;2023-08-24T12:38:58;5.28;;;2.35;;
31450;SDS011;18070;52.474;13.304;2023-08-24T12:41:24;5.35;;;1.90;;
31450;SDS011;18070;52.474;13.304;2023-08-24T12:43:50;8.50;;;2.83;;
31450;SDS011;18070;52.474;13.304;2023-08-24T12:46:19;9.20;;;2.42;;
31450;SDS011;18070;52.474;13.304;2023-08-24T12:48:44;11.27;;;2.40;;
31450;SDS011;18070;52.474;13.304;2023-08-24T12:51:10;10.98;;;3.08;;
31450;SDS011;18070;52.474;13.304;2023-08-24T12:53:36;6.18;;;2.42;;
31450;SDS011;18070;52.474;13.304;2023-08-24T12:56:01;5.60;;;2.30;;
31450;SDS011;18070;52.474;13.304;2023-08-24T12:58:27;6.93;;;1.92;;
31450;SDS011;18070;52.474;13.304;2023-08-24T13:00:53;6.47;;;2.20;;
31450;SDS011;18070;52.474;13.304;2023-08-24T13:03:18;11.70;;;2.13;;
31450;SDS011;18070;52.474;13.304;2023-08-24T13:05:44;9.93;;;2.63;;
31450;SDS011;18070;52.474;13.304;2023-08-24T13:08:09;4.15;;;2.47;;
31450;SDS011;18070;52.474;13.304;2023-08-24T13:10:35;6.00;;;3.00;;
31450;SDS011;18070;52.474;13.304;2023-08-24T13:13:01;10.98;;;2.08;;
31450;SDS011;18070;52.474;13.304;2023-08-24T13:15:27;4.80;;;2.00;;
31450;SDS011;18070;52.474;13.304;2023-08-24T13:17:53;6.95;;;2.38;;
31450;SDS011;18070;52.474;13.304;2023-08-24T13:20:19;4.30;;;2.53;;
31450;SDS011;18070;52.474;13.304;2023-08-24T13:22:44;5.78;;;2.40;;
31450;SDS011;18070;52.474;13.304;2023-08-24T13:25:10;7.03;;;2.70;;
31450;SDS011;18070;52.474;13.304;2023-08-24T13:27:35;4.75;;;2.20;;
31450;SDS011;18070;52.474;13.304;2023-08-24T13:30:02;6.63;;;2.28;;
31450;SDS011;18070;52.474;13.304;2023-08-24T13:32:29;6.72;;;2.13;;
31450;SDS011;18070;52.474;13.304;2023-08-24T13:34:55;6.80;;;2.28;;
31450;SDS011;18070;52.474;13.304;2023-08-24T13:37:21;4.55;;;2.08;;
31450;SDS011;18070;52.474;13.304;2023-08-24T13:39:46;5.03;;;2.13;;
31450;SDS011;18070;52.474;13.304;2023-08-24T13:42:12;6.88;;;2.15;;
31450;SDS011;18070;52.474;13.304;2023-08-24T13:44:38;7.00;;;2.17;;
31450;SDS011;18070;52.474;13.304;2023-08-24T13:47:04;4.45;;;2.00;;
31450;SDS011;18070;52.474;13.304;2023-08-24T13:49:31;11.43;;;2.10;;
31450;SDS011;18070;52.474;13.304;2023-08-24T13:51:56;24.58;;;14.40;;
31450;SDS011;18070;52.474;13.304;2023-08-24T13:54:22;8.20;;;2.30;;
31450;SDS011;18070;52.474;13.304;2023-08-24T13:56:48;3.40;;;2.45;;
31450;SDS011;18070;52.474;13.304;2023-08-24T13:59:15;8.20;;;2.17;;
31450;SDS011;18070;52.474;13.304;2023-08-24T14:01:41;6.65;;;1.90;;
31450;SDS011;18070;52.474;13.304;2023-08-24T14:04:07;2.88;;;1.92;;
31450;SDS011;18070;52.474;13.304;2023-08-24T14:06:33;7.85;;;2.28;;
31450;SDS011;18070;52.474;13.304;2023-08-24T14:09:01;9.15;;;2.45;;
31450;SDS011;18070;52.474;13.304;2023-08-24T14:11:28;3.47;;;2.13;;
31450;SDS011;18070;52.474;13.304;2023-08-24T14:13:53;5.88;;;1.90;;
31450;SDS011;18070;52.474;13.304;2023-08-24T14:16:19;6.80;;;2.30;;
31450;SDS011;18070;52.474;13.304;2023-08-24T14:18:45;2.97;;;1.85;;
31450;SDS011;18070;52.474;13.304;2023-08-24T14:21:11;2.88;;;1.90;;
31450;SDS011;18070;52.474;13.304;2023-08-24T14:23:37;5.82;;;2.03;;
31450;SDS011;18070;52.474;13.304;2023-08-24T14:26:03;5.15;;;2.20;;
31450;SDS011;18070;52.474;13.304;2023-08-24T14:28:46;6.50;;;2.28;;
31450;SDS011;18070;52.474;13.304;2023-08-24T14:31:12;5.03;;;2.05;;
31450;SDS011;18070;52.474;13.304;2023-08-24T14:33:37;6.25;;;2.35;;
31450;SDS011;18070;52.474;13.304;2023-08-24T14:36:03;4.63;;;2.15;;
31450;SDS011;18070;52.474;13.304;2023-08-24T14:38:29;4.90;;;1.90;;
31450;SDS011;18070;52.474;13.304;2023-08-24T14:40:54;6.30;;;2.42;;
31450;SDS011;18070;52.474;13.304;2023-08-24T14:43:20;5.65;;;2.30;;